sensor_id;sensor_type;location;lat;lon;timestamp;pressure;altitude;pressure_sealevel;temperature;humidity
55277;BME280;41136;51.478;-2.610;2023-07-31T00:00:51;99874.06;;;19.27;100.00
55277;BME280;41136;51.478;-2.610;2023-07-31T00:03:16;99879.15;;;18.60;100.00
55277;BME280;41136;51.478;-2.610;2023-07-31T00:05:42;99884.63;;;19.29;100.00
55277;BME280;41136;51.478;-2.610;2023-07-31T00:08:07;99890.38;;;19.29;100.00
55277;BME280;41136;51.478;-2.610;2023-07-31T00:10:32;99887.22;;;18.59;100.00
55277;BME280;41136;51.478;-2.610;2023-07-31T00:12:57;99892.62;;;19.67;100.00
55277;BME280;41136;51.478;-2.610;2023-07-31T00:15:23;99891.96;;;19.28;100.00
55277;BME280;41136;51.478;-2.610;2023-07-31T00:17:48;99892.19;;;19.11;100.00
55277;BME280;41136;51.478;-2.610;2023-07-31T00:20:13;99880.93;;;18.92;100.00
55277;BME280;41136;51.478;-2.610;2023-07-31T00:22:38;99878.62;;;19.15;100.00
55277;BME280;41136;51.478;-2.610;2023-07-31T00:25:04;99869.01;;;18.89;100.00
55277;BME280;41136;51.478;-2.610;2023-07-31T00:28:50;99866.18;;;18.34;100.00
55277;BME280;41136;51.478;-2.610;2023-07-31T00:31:15;99864.36;;;17.90;100.00
55277;BME280;41136;51.478;-2.610;2023-07-31T00:33:40;99853.69;;;19.06;100.00
55277;BME280;41136;51.478;-2.610;2023-07-31T00:36:05;99846.34;;;19.30;100.00
55277;BME280;41136;51.478;-2.610;2023-07-31T00:38:30;99837.79;;;20.14;100.00
55277;BME280;41136;51.478;-2.610;2023-07-31T00:40:55;99836.86;;;19.61;100.00
55277;BME280;41136;51.478;-2.610;2023-07-31T00:43:21;99829.73;;;19.21;100.00
55277;BME280;41136;51.478;-2.610;2023-07-31T00:45:47;99828.85;;;19.69;100.00
55277;BME280;41136;51.478;-2.610;2023-07-31T00:48:11;99831.62;;;19.19;100.00
55277;BME280;41136;51.478;-2.610;2023-07-31T00:50:37;99836.19;;;19.48;100.00
55277;BME280;41136;51.478;-2.610;2023-07-31T00:53:02;99834.21;;;19.26;100.00
55277;BME280;41136;51.478;-2.610;2023-07-31T00:55:27;99840.65;;;19.51;100.00
55277;BME280;41136;51.478;-2.610;2023-07-31T00:57:52;99842.45;;;18.84;100.00
55277;BME280;41136;51.478;-2.610;2023-07-31T01:00:17;99835.18;;;17.89;100.00
55277;BME280;41136;51.478;-2.610;2023-07-31T01:02:43;99831.08;;;18.16;100.00
55277;BME280;41136;51.478;-2.610;2023-07-31T01:05:08;99834.49;;;18.05;100.00
55277;BME280;41136;51.478;-2.610;2023-07-31T01:07:50;99833.12;;;18.60;100.00
55277;BME280;41136;51.478;-2.610;2023-07-31T01:10:02;99824.27;;;19.06;100.00
55277;BME280;41136;51.478;-2.610;2023-07-31T01:12:24;99819.37;;;19.13;100.00
55277;BME280;41136;51.478;-2.610;2023-07-31T01:14:52;99815.94;;;18.79;100.00
55277;BME280;41136;51.478;-2.610;2023-07-31T01:17:14;99811.50;;;18.85;100.00
55277;BME280;41136;51.478;-2.610;2023-07-31T01:19:39;99815.10;;;18.49;100.00
55277;BME280;41136;51.478;-2.610;2023-07-31T01:22:15;99814.29;;;19.44;100.00
55277;BME280;41136;51.478;-2.610;2023-07-31T01:24:36;99797.48;;;19.19;100.00
55277;BME280;41136;51.478;-2.610;2023-07-31T01:26:57;99806.35;;;18.73;100.00
55277;BME280;41136;51.478;-2.610;2023-07-31T01:29:25;99809.84;;;18.39;100.00
55277;BME280;41136;51.478;-2.610;2023-07-31T01:31:48;99806.78;;;19.30;100.00
55277;BME280;41136;51.478;-2.610;2023-07-31T01:34:11;99802.37;;;18.55;100.00
55277;BME280;41136;51.478;-2.610;2023-07-31T01:36:36;99808.02;;;19.19;100.00
55277;BME280;41136;51.478;-2.610;2023-07-31T01:39:01;99803.36;;;18.25;100.00
55277;BME280;41136;51.478;-2.610;2023-07-31T01:41:26;99803.90;;;17.50;100.00
55277;BME280;41136;51.478;-2.610;2023-07-31T01:43:51;99808.68;;;17.79;100.00
55277;BME280;41136;51.478;-2.610;2023-07-31T01:46:16;99808.09;;;18.22;100.00
55277;BME280;41136;51.478;-2.610;2023-07-31T01:48:42;99802.33;;;17.62;100.00
55277;BME280;41136;51.478;-2.610;2023-07-31T01:51:07;99799.11;;;17.36;100.00
55277;BME280;41136;51.478;-2.610;2023-07-31T01:53:32;99801.90;;;17.51;100.00
55277;BME280;41136;51.478;-2.610;2023-07-31T01:55:58;99802.99;;;18.28;100.00
55277;BME280;41136;51.478;-2.610;2023-07-31T01:58:23;99803.84;;;17.39;100.00
55277;BME280;41136;51.478;-2.610;2023-07-31T02:00:48;99801.35;;;17.66;100.00
55277;BME280;41136;51.478;-2.610;2023-07-31T02:03:13;99797.05;;;18.02;100.00
55277;BME280;41136;51.478;-2.610;2023-07-31T02:05:44;99805.84;;;17.46;100.00
55277;BME280;41136;51.478;-2.610;2023-07-31T02:08:04;99800.93;;;18.49;100.00
55277;BME280;41136;51.478;-2.610;2023-07-31T02:10:29;99805.93;;;17.96;100.00
55277;BME280;41136;51.478;-2.610;2023-07-31T02:12:54;99802.72;;;17.29;100.00
55277;BME280;41136;51.478;-2.610;2023-07-31T02:15:20;99804.49;;;17.09;100.00
55277;BME280;41136;51.478;-2.610;2023-07-31T02:17:44;99801.10;;;16.42;100.00
55277;BME280;41136;51.478;-2.610;2023-07-31T02:20:10;99803.82;;;17.09;100.00
55277;BME280;41136;51.478;-2.610;2023-07-31T02:22:35;99796.44;;;16.80;100.00
55277;BME280;41136;51.478;-2.610;2023-07-31T02:25:00;99797.06;;;17.07;100.00
55277;BME280;41136;51.478;-2.610;2023-07-31T02:27:25;99791.08;;;16.26;100.00
55277;BME280;41136;51.478;-2.610;2023-07-31T02:29:50;99785.44;;;16.60;100.00
55277;BME280;41136;51.478;-2.610;2023-07-31T02:32:16;99786.74;;;16.28;100.00
55277;BME280;41136;51.478;-2.610;2023-07-31T02:34:41;99791.98;;;16.24;100.00
55277;BME280;41136;51.478;-2.610;2023-07-31T02:37:06;99782.59;;;15.99;100.00
55277;BME280;41136;51.478;-2.610;2023-07-31T02:39:31;99782.39;;;16.02;100.00
55277;BME280;41136;51.478;-2.610;2023-07-31T02:41:57;99777.19;;;15.93;100.00
55277;BME280;41136;51.478;-2.610;2023-07-31T02:44:22;99786.61;;;16.46;100.00
55277;BME280;41136;51.478;-2.610;2023-07-31T02:46:47;99780.28;;;16.49;100.00
55277;BME280;41136;51.478;-2.610;2023-07-31T02:49:12;99772.14;;;16.46;100.00
55277;BME280;41136;51.478;-2.610;2023-07-31T02:51:38;99781.37;;;15.87;100.00
55277;BME280;41136;51.478;-2.610;2023-07-31T02:54:04;99773.41;;;15.62;100.00
55277;BME280;41136;51.478;-2.610;2023-07-31T02:56:29;99773.96;;;15.60;100.00
55277;BME280;41136;51.478;-2.610;2023-07-31T02:58:54;99774.00;;;15.97;100.00
55277;BME280;41136;51.478;-2.610;2023-07-31T03:01:19;99768.12;;;16.69;100.00
55277;BME280;41136;51.478;-2.610;2023-07-31T03:03:45;99765.05;;;16.29;100.00
55277;BME280;41136;51.478;-2.610;2023-07-31T03:06:10;99767.54;;;15.99;100.00
55277;BME280;41136;51.478;-2.610;2023-07-31T03:08:35;99771.95;;;16.31;100.00
55277;BME280;41136;51.478;-2.610;2023-07-31T03:11:00;99765.25;;;16.30;100.00
55277;BME280;41136;51.478;-2.610;2023-07-31T03:13:25;99762.35;;;16.23;100.00
55277;BME280;41136;51.478;-2.610;2023-07-31T03:15:51;99769.67;;;16.19;100.00
55277;BME280;41136;51.478;-2.610;2023-07-31T03:18:16;99775.77;;;16.06;100.00
55277;BME280;41136;51.478;-2.610;2023-07-31T03:20:42;99767.23;;;16.21;100.00
55277;BME280;41136;51.478;-2.610;2023-07-31T03:23:06;99766.12;;;16.11;100.00
55277;BME280;41136;51.478;-2.610;2023-07-31T03:25:32;99768.55;;;15.88;100.00
55277;BME280;41136;51.478;-2.610;2023-07-31T03:27:57;99767.04;;;16.04;100.00
55277;BME280;41136;51.478;-2.610;2023-07-31T03:30:22;99765.15;;;15.94;100.00
55277;BME280;41136;51.478;-2.610;2023-07-31T03:32:48;99775.95;;;15.31;100.00
55277;BME280;41136;51.478;-2.610;2023-07-31T03:35:13;99776.76;;;15.78;100.00
55277;BME280;41136;51.478;-2.610;2023-07-31T03:37:38;99777.50;;;16.14;100.00
55277;BME280;41136;51.478;-2.610;2023-07-31T03:40:05;99773.96;;;15.48;100.00
55277;BME280;41136;51.478;-2.610;2023-07-31T03:42:29;99775.69;;;15.73;100.00
55277;BME280;41136;51.478;-2.610;2023-07-31T03:44:54;99770.08;;;15.48;100.00
55277;BME280;41136;51.478;-2.610;2023-07-31T03:47:19;99767.72;;;15.99;100.00
55277;BME280;41136;51.478;-2.610;2023-07-31T03:49:45;99762.75;;;16.43;100.00
55277;BME280;41136;51.478;-2.610;2023-07-31T03:52:10;99760.88;;;16.08;100.00
55277;BME280;41136;51.478;-2.610;2023-07-31T03:54:36;99765.65;;;16.56;100.00
55277;BME280;41136;51.478;-2.610;2023-07-31T03:57:01;99764.55;;;16.92;100.00
55277;BME280;41136;51.478;-2.610;2023-07-31T03:59:26;99764.84;;;16.49;100.00
55277;BME280;41136;51.478;-2.610;2023-07-31T04:01:51;99767.30;;;16.55;100.00
55277;BME280;41136;51.478;-2.610;2023-07-31T04:04:17;99762.44;;;16.41;100.00
55277;BME280;41136;51.478;-2.610;2023-07-31T04:06:42;99763.95;;;15.98;100.00
55277;BME280;41136;51.478;-2.610;2023-07-31T04:09:07;99766.60;;;15.99;100.00
55277;BME280;41136;51.478;-2.610;2023-07-31T04:11:33;99757.86;;;16.55;100.00
55277;BME280;41136;51.478;-2.610;2023-07-31T04:13:58;99763.14;;;16.59;100.00
55277;BME280;41136;51.478;-2.610;2023-07-31T04:16:23;99761.22;;;15.92;100.00
55277;BME280;41136;51.478;-2.610;2023-07-31T04:18:48;99763.15;;;16.55;100.00
55277;BME280;41136;51.478;-2.610;2023-07-31T04:23:08;99758.37;;;15.68;100.00
55277;BME280;41136;51.478;-2.610;2023-07-31T04:25:33;99761.60;;;15.67;100.00
55277;BME280;41136;51.478;-2.610;2023-07-31T04:27:58;99770.21;;;16.83;100.00
55277;BME280;41136;51.478;-2.610;2023-07-31T04:30:24;99768.08;;;16.40;100.00
55277;BME280;41136;51.478;-2.610;2023-07-31T04:32:48;99768.81;;;16.57;100.00
55277;BME280;41136;51.478;-2.610;2023-07-31T04:35:14;99767.21;;;16.64;100.00
55277;BME280;41136;51.478;-2.610;2023-07-31T04:37:39;99761.34;;;16.75;100.00
55277;BME280;41136;51.478;-2.610;2023-07-31T04:40:05;99757.07;;;16.78;100.00
55277;BME280;41136;51.478;-2.610;2023-07-31T04:42:30;99764.29;;;16.53;100.00
55277;BME280;41136;51.478;-2.610;2023-07-31T04:44:55;99757.34;;;16.10;100.00
55277;BME280;41136;51.478;-2.610;2023-07-31T04:47:20;99763.69;;;16.82;100.00
55277;BME280;41136;51.478;-2.610;2023-07-31T04:49:46;99764.14;;;16.12;100.00
55277;BME280;41136;51.478;-2.610;2023-07-31T04:52:11;99768.82;;;15.83;100.00
55277;BME280;41136;51.478;-2.610;2023-07-31T04:54:37;99763.21;;;15.97;100.00
55277;BME280;41136;51.478;-2.610;2023-07-31T04:57:03;99760.68;;;16.31;100.00
55277;BME280;41136;51.478;-2.610;2023-07-31T04:59:28;99764.72;;;16.46;100.00
55277;BME280;41136;51.478;-2.610;2023-07-31T05:01:54;99762.67;;;16.87;100.00
55277;BME280;41136;51.478;-2.610;2023-07-31T05:04:19;99764.51;;;17.23;100.00
55277;BME280;41136;51.478;-2.610;2023-07-31T05:06:45;99759.24;;;17.15;100.00
55277;BME280;41136;51.478;-2.610;2023-07-31T05:09:10;99750.49;;;17.05;100.00
55277;BME280;41136;51.478;-2.610;2023-07-31T05:11:36;99749.41;;;16.53;100.00
55277;BME280;41136;51.478;-2.610;2023-07-31T05:14:02;99749.84;;;17.16;100.00
55277;BME280;41136;51.478;-2.610;2023-07-31T05:16:27;99749.02;;;17.30;100.00
55277;BME280;41136;51.478;-2.610;2023-07-31T05:18:52;99739.83;;;17.57;100.00
55277;BME280;41136;51.478;-2.610;2023-07-31T05:21:18;99735.55;;;17.41;100.00
55277;BME280;41136;51.478;-2.610;2023-07-31T05:23:43;99744.31;;;16.53;100.00
55277;BME280;41136;51.478;-2.610;2023-07-31T05:26:08;99744.85;;;16.83;100.00
55277;BME280;41136;51.478;-2.610;2023-07-31T05:28:35;99739.52;;;17.08;100.00
55277;BME280;41136;51.478;-2.610;2023-07-31T05:30:59;99736.19;;;17.31;100.00
55277;BME280;41136;51.478;-2.610;2023-07-31T05:33:24;99737.08;;;17.03;100.00
55277;BME280;41136;51.478;-2.610;2023-07-31T05:35:49;99737.33;;;17.65;100.00
55277;BME280;41136;51.478;-2.610;2023-07-31T05:38:15;99739.10;;;17.98;100.00
55277;BME280;41136;51.478;-2.610;2023-07-31T05:40:40;99741.13;;;17.36;100.00
55277;BME280;41136;51.478;-2.610;2023-07-31T05:43:06;99746.29;;;17.68;100.00
55277;BME280;41136;51.478;-2.610;2023-07-31T05:45:30;99744.66;;;17.23;100.00
55277;BME280;41136;51.478;-2.610;2023-07-31T05:47:56;99739.47;;;17.64;100.00
55277;BME280;41136;51.478;-2.610;2023-07-31T05:50:22;99738.32;;;17.29;100.00
55277;BME280;41136;51.478;-2.610;2023-07-31T05:52:47;99734.88;;;17.07;100.00
55277;BME280;41136;51.478;-2.610;2023-07-31T05:55:12;99727.68;;;16.91;100.00
55277;BME280;41136;51.478;-2.610;2023-07-31T05:57:37;99730.95;;;16.92;100.00
55277;BME280;41136;51.478;-2.610;2023-07-31T06:00:03;99721.96;;;17.68;100.00
55277;BME280;41136;51.478;-2.610;2023-07-31T06:02:28;99718.68;;;16.82;100.00
55277;BME280;41136;51.478;-2.610;2023-07-31T06:04:53;99711.12;;;17.20;100.00
55277;BME280;41136;51.478;-2.610;2023-07-31T06:07:18;99711.83;;;17.11;100.00
55277;BME280;41136;51.478;-2.610;2023-07-31T06:09:43;99709.46;;;17.90;100.00
55277;BME280;41136;51.478;-2.610;2023-07-31T06:12:09;99705.21;;;17.00;100.00
55277;BME280;41136;51.478;-2.610;2023-07-31T06:14:34;99707.80;;;17.30;100.00
55277;BME280;41136;51.478;-2.610;2023-07-31T06:16:59;99710.81;;;17.75;100.00
55277;BME280;41136;51.478;-2.610;2023-07-31T06:19:25;99711.51;;;17.29;100.00
55277;BME280;41136;51.478;-2.610;2023-07-31T06:21:50;99719.33;;;17.26;100.00
55277;BME280;41136;51.478;-2.610;2023-07-31T06:24:16;99725.80;;;17.65;100.00
55277;BME280;41136;51.478;-2.610;2023-07-31T06:26:41;99733.93;;;17.06;100.00
55277;BME280;41136;51.478;-2.610;2023-07-31T06:29:07;99726.54;;;17.49;100.00
55277;BME280;41136;51.478;-2.610;2023-07-31T06:31:32;99717.16;;;17.14;100.00
55277;BME280;41136;51.478;-2.610;2023-07-31T06:33:57;99710.87;;;17.52;100.00
55277;BME280;41136;51.478;-2.610;2023-07-31T06:36:22;99715.61;;;18.41;100.00
55277;BME280;41136;51.478;-2.610;2023-07-31T06:38:48;99707.19;;;18.75;100.00
55277;BME280;41136;51.478;-2.610;2023-07-31T06:41:13;99712.05;;;17.95;100.00
55277;BME280;41136;51.478;-2.610;2023-07-31T06:43:38;99715.22;;;17.97;100.00
55277;BME280;41136;51.478;-2.610;2023-07-31T06:46:05;99723.60;;;17.66;100.00
55277;BME280;41136;51.478;-2.610;2023-07-31T06:48:28;99725.63;;;18.14;100.00
55277;BME280;41136;51.478;-2.610;2023-07-31T06:50:54;99723.76;;;18.87;100.00
55277;BME280;41136;51.478;-2.610;2023-07-31T06:53:19;99720.13;;;18.77;100.00
55277;BME280;41136;51.478;-2.610;2023-07-31T06:55:45;99713.43;;;18.37;100.00
55277;BME280;41136;51.478;-2.610;2023-07-31T06:58:10;99715.61;;;17.99;100.00
55277;BME280;41136;51.478;-2.610;2023-07-31T07:00:36;99709.34;;;18.34;100.00
55277;BME280;41136;51.478;-2.610;2023-07-31T07:03:02;99697.75;;;18.47;100.00
55277;BME280;41136;51.478;-2.610;2023-07-31T07:05:27;99689.28;;;18.15;100.00
55277;BME280;41136;51.478;-2.610;2023-07-31T07:07:52;99691.82;;;17.57;100.00
55277;BME280;41136;51.478;-2.610;2023-07-31T07:10:17;99695.81;;;18.37;100.00
55277;BME280;41136;51.478;-2.610;2023-07-31T07:12:43;99696.29;;;18.66;100.00
55277;BME280;41136;51.478;-2.610;2023-07-31T07:15:09;99697.07;;;18.30;100.00
55277;BME280;41136;51.478;-2.610;2023-07-31T07:17:34;99699.67;;;18.30;100.00
55277;BME280;41136;51.478;-2.610;2023-07-31T07:19:59;99695.21;;;18.43;100.00
55277;BME280;41136;51.478;-2.610;2023-07-31T07:22:24;99691.35;;;18.89;100.00
55277;BME280;41136;51.478;-2.610;2023-07-31T07:24:50;99693.68;;;18.15;100.00
55277;BME280;41136;51.478;-2.610;2023-07-31T07:27:14;99699.27;;;18.56;100.00
55277;BME280;41136;51.478;-2.610;2023-07-31T07:29:40;99686.23;;;18.84;100.00
55277;BME280;41136;51.478;-2.610;2023-07-31T07:32:06;99686.34;;;19.09;100.00
55277;BME280;41136;51.478;-2.610;2023-07-31T07:34:30;99698.42;;;18.23;100.00
55277;BME280;41136;51.478;-2.610;2023-07-31T07:36:56;99687.62;;;18.00;100.00
55277;BME280;41136;51.478;-2.610;2023-07-31T07:39:22;99674.23;;;18.59;100.00
55277;BME280;41136;51.478;-2.610;2023-07-31T07:41:47;99688.41;;;17.53;100.00
55277;BME280;41136;51.478;-2.610;2023-07-31T07:44:13;99677.85;;;18.33;100.00
55277;BME280;41136;51.478;-2.610;2023-07-31T07:46:38;99687.63;;;17.83;100.00
55277;BME280;41136;51.478;-2.610;2023-07-31T07:49:03;99688.96;;;18.09;100.00
55277;BME280;41136;51.478;-2.610;2023-07-31T07:51:28;99689.06;;;17.99;100.00
55277;BME280;41136;51.478;-2.610;2023-07-31T07:53:54;99693.59;;;16.93;100.00
55277;BME280;41136;51.478;-2.610;2023-07-31T07:56:18;99679.64;;;17.10;100.00
55277;BME280;41136;51.478;-2.610;2023-07-31T07:58:44;99674.11;;;17.08;100.00
55277;BME280;41136;51.478;-2.610;2023-07-31T08:01:09;99668.77;;;16.67;100.00
55277;BME280;41136;51.478;-2.610;2023-07-31T08:03:35;99657.08;;;16.92;100.00
55277;BME280;41136;51.478;-2.610;2023-07-31T08:06:00;99659.67;;;17.25;100.00
55277;BME280;41136;51.478;-2.610;2023-07-31T08:08:25;99654.04;;;17.33;100.00
55277;BME280;41136;51.478;-2.610;2023-07-31T08:10:50;99646.80;;;17.57;100.00
55277;BME280;41136;51.478;-2.610;2023-07-31T08:13:16;99652.23;;;17.77;100.00
55277;BME280;41136;51.478;-2.610;2023-07-31T08:15:41;99641.74;;;17.59;100.00
55277;BME280;41136;51.478;-2.610;2023-07-31T08:18:06;99629.17;;;18.04;100.00
55277;BME280;41136;51.478;-2.610;2023-07-31T08:20:31;99628.31;;;17.49;100.00
55277;BME280;41136;51.478;-2.610;2023-07-31T08:22:57;99616.30;;;17.65;100.00
55277;BME280;41136;51.478;-2.610;2023-07-31T08:25:22;99617.23;;;17.36;100.00
55277;BME280;41136;51.478;-2.610;2023-07-31T08:27:47;99627.13;;;17.98;100.00
55277;BME280;41136;51.478;-2.610;2023-07-31T08:30:13;99633.15;;;18.11;100.00
55277;BME280;41136;51.478;-2.610;2023-07-31T08:32:38;99646.20;;;17.23;100.00
55277;BME280;41136;51.478;-2.610;2023-07-31T08:35:03;99646.53;;;18.02;100.00
55277;BME280;41136;51.478;-2.610;2023-07-31T08:37:28;99649.37;;;17.68;100.00
55277;BME280;41136;51.478;-2.610;2023-07-31T08:39:53;99661.70;;;17.43;100.00
55277;BME280;41136;51.478;-2.610;2023-07-31T08:42:18;99686.29;;;16.98;100.00
55277;BME280;41136;51.478;-2.610;2023-07-31T08:44:44;99670.88;;;17.84;100.00
55277;BME280;41136;51.478;-2.610;2023-07-31T08:47:10;99663.88;;;17.95;100.00
55277;BME280;41136;51.478;-2.610;2023-07-31T08:49:35;99665.86;;;17.49;100.00
55277;BME280;41136;51.478;-2.610;2023-07-31T08:52:00;99663.93;;;17.11;100.00
55277;BME280;41136;51.478;-2.610;2023-07-31T08:54:25;99658.91;;;17.55;100.00
55277;BME280;41136;51.478;-2.610;2023-07-31T08:56:51;99654.50;;;17.16;100.00
55277;BME280;41136;51.478;-2.610;2023-07-31T08:59:17;99666.04;;;17.26;100.00
55277;BME280;41136;51.478;-2.610;2023-07-31T09:01:45;99670.79;;;17.41;100.00
55277;BME280;41136;51.478;-2.610;2023-07-31T09:04:08;99679.79;;;17.69;100.00
55277;BME280;41136;51.478;-2.610;2023-07-31T09:06:33;99684.91;;;17.66;100.00
55277;BME280;41136;51.478;-2.610;2023-07-31T09:08:58;99661.56;;;17.85;100.00
55277;BME280;41136;51.478;-2.610;2023-07-31T09:11:24;99651.40;;;17.83;100.00
55277;BME280;41136;51.478;-2.610;2023-07-31T09:13:49;99676.21;;;18.03;100.00
55277;BME280;41136;51.478;-2.610;2023-07-31T09:16:14;99677.33;;;16.83;100.00
55277;BME280;41136;51.478;-2.610;2023-07-31T09:21:05;99678.54;;;16.49;100.00
55277;BME280;41136;51.478;-2.610;2023-07-31T09:25:56;99654.27;;;16.41;100.00
55277;BME280;41136;51.478;-2.610;2023-07-31T09:28:30;99646.18;;;16.64;100.00
55277;BME280;41136;51.478;-2.610;2023-07-31T09:30:47;99634.20;;;17.14;100.00
55277;BME280;41136;51.478;-2.610;2023-07-31T09:33:11;99639.22;;;16.86;100.00
55277;BME280;41136;51.478;-2.610;2023-07-31T09:35:37;99633.40;;;16.91;100.00
55277;BME280;41136;51.478;-2.610;2023-07-31T09:38:05;99634.20;;;17.42;100.00
55277;BME280;41136;51.478;-2.610;2023-07-31T09:40:29;99638.64;;;17.22;100.00
55277;BME280;41136;51.478;-2.610;2023-07-31T09:42:54;99653.02;;;17.40;100.00
55277;BME280;41136;51.478;-2.610;2023-07-31T09:45:19;99668.78;;;17.73;100.00
55277;BME280;41136;51.478;-2.610;2023-07-31T09:47:46;99668.30;;;17.73;100.00
55277;BME280;41136;51.478;-2.610;2023-07-31T09:50:10;99663.48;;;16.87;100.00
55277;BME280;41136;51.478;-2.610;2023-07-31T09:52:38;99664.08;;;17.17;100.00
55277;BME280;41136;51.478;-2.610;2023-07-31T09:55:00;99670.40;;;17.08;100.00
55277;BME280;41136;51.478;-2.610;2023-07-31T09:57:26;99676.98;;;17.98;100.00
55277;BME280;41136;51.478;-2.610;2023-07-31T09:59:52;99675.72;;;17.75;100.00
55277;BME280;41136;51.478;-2.610;2023-07-31T10:02:21;99690.18;;;17.56;100.00
55277;BME280;41136;51.478;-2.610;2023-07-31T10:04:43;99697.18;;;17.10;100.00
55277;BME280;41136;51.478;-2.610;2023-07-31T10:07:07;99699.18;;;16.89;100.00
55277;BME280;41136;51.478;-2.610;2023-07-31T10:09:33;99700.36;;;15.92;100.00
55277;BME280;41136;51.478;-2.610;2023-07-31T10:12:00;99700.45;;;16.43;100.00
55277;BME280;41136;51.478;-2.610;2023-07-31T10:14:24;99714.29;;;16.50;100.00
55277;BME280;41136;51.478;-2.610;2023-07-31T10:16:49;99722.50;;;16.46;100.00
55277;BME280;41136;51.478;-2.610;2023-07-31T10:19:14;99709.28;;;17.05;100.00
55277;BME280;41136;51.478;-2.610;2023-07-31T10:21:39;99709.43;;;16.64;100.00
55277;BME280;41136;51.478;-2.610;2023-07-31T10:24:05;99702.43;;;17.01;100.00
55277;BME280;41136;51.478;-2.610;2023-07-31T10:26:31;99702.96;;;17.28;100.00
55277;BME280;41136;51.478;-2.610;2023-07-31T10:28:56;99734.78;;;16.56;100.00
55277;BME280;41136;51.478;-2.610;2023-07-31T10:31:21;99737.83;;;17.06;100.00
55277;BME280;41136;51.478;-2.610;2023-07-31T10:33:47;99719.52;;;17.00;100.00
55277;BME280;41136;51.478;-2.610;2023-07-31T10:36:13;99715.99;;;16.65;100.00
55277;BME280;41136;51.478;-2.610;2023-07-31T10:38:37;99713.53;;;16.33;100.00
55277;BME280;41136;51.478;-2.610;2023-07-31T10:41:08;99704.50;;;17.23;100.00
55277;BME280;41136;51.478;-2.610;2023-07-31T10:43:28;99702.05;;;17.73;100.00
55277;BME280;41136;51.478;-2.610;2023-07-31T10:45:53;99705.14;;;17.45;100.00
55277;BME280;41136;51.478;-2.610;2023-07-31T10:48:18;99714.74;;;16.84;100.00
55277;BME280;41136;51.478;-2.610;2023-07-31T10:50:48;99703.12;;;17.33;100.00
55277;BME280;41136;51.478;-2.610;2023-07-31T10:55:40;99717.26;;;16.68;100.00
55277;BME280;41136;51.478;-2.610;2023-07-31T10:58:06;99707.94;;;17.77;100.00
55277;BME280;41136;51.478;-2.610;2023-07-31T11:00:27;99703.69;;;17.04;100.00
55277;BME280;41136;51.478;-2.610;2023-07-31T11:02:56;99708.56;;;17.39;100.00
55277;BME280;41136;51.478;-2.610;2023-07-31T11:05:15;99709.04;;;17.57;100.00
55277;BME280;41136;51.478;-2.610;2023-07-31T11:07:47;99702.55;;;17.16;100.00
55277;BME280;41136;51.478;-2.610;2023-07-31T11:10:07;99684.18;;;16.60;100.00
55277;BME280;41136;51.478;-2.610;2023-07-31T11:12:32;99662.90;;;17.30;100.00
55277;BME280;41136;51.478;-2.610;2023-07-31T11:14:58;99649.81;;;17.22;100.00
55277;BME280;41136;51.478;-2.610;2023-07-31T11:17:25;99640.97;;;17.96;100.00
55277;BME280;41136;51.478;-2.610;2023-07-31T11:19:50;99648.43;;;17.95;100.00
55277;BME280;41136;51.478;-2.610;2023-07-31T11:22:14;99647.69;;;18.04;100.00
55277;BME280;41136;51.478;-2.610;2023-07-31T11:24:40;99651.44;;;17.93;100.00
55277;BME280;41136;51.478;-2.610;2023-07-31T11:27:07;99641.34;;;17.38;100.00
55277;BME280;41136;51.478;-2.610;2023-07-31T11:29:31;99630.42;;;17.94;100.00
55277;BME280;41136;51.478;-2.610;2023-07-31T11:31:56;99626.45;;;17.95;100.00
55277;BME280;41136;51.478;-2.610;2023-07-31T11:34:21;99625.14;;;18.65;100.00
55277;BME280;41136;51.478;-2.610;2023-07-31T11:36:53;99642.59;;;17.27;100.00
55277;BME280;41136;51.478;-2.610;2023-07-31T11:39:12;99622.55;;;17.17;100.00
55277;BME280;41136;51.478;-2.610;2023-07-31T11:41:41;99606.55;;;17.69;100.00
55277;BME280;41136;51.478;-2.610;2023-07-31T11:44:04;99583.00;;;17.89;100.00
55277;BME280;41136;51.478;-2.610;2023-07-31T11:46:30;99569.13;;;18.57;100.00
55277;BME280;41136;51.478;-2.610;2023-07-31T11:48:59;99579.41;;;17.88;100.00
55277;BME280;41136;51.478;-2.610;2023-07-31T11:51:20;99605.63;;;17.97;100.00
55277;BME280;41136;51.478;-2.610;2023-07-31T11:53:48;99606.59;;;17.73;100.00
55277;BME280;41136;51.478;-2.610;2023-07-31T11:56:13;99582.49;;;18.14;100.00
55277;BME280;41136;51.478;-2.610;2023-07-31T11:58:36;99566.96;;;18.52;100.00
55277;BME280;41136;51.478;-2.610;2023-07-31T12:01:02;99550.02;;;19.00;100.00
55277;BME280;41136;51.478;-2.610;2023-07-31T12:03:27;99583.74;;;18.36;100.00
55277;BME280;41136;51.478;-2.610;2023-07-31T12:05:53;99576.90;;;18.34;100.00
55277;BME280;41136;51.478;-2.610;2023-07-31T12:08:21;99568.18;;;18.46;100.00
55277;BME280;41136;51.478;-2.610;2023-07-31T12:10:43;99622.10;;;17.45;100.00
55277;BME280;41136;51.478;-2.610;2023-07-31T12:13:11;99637.58;;;18.16;100.00
55277;BME280;41136;51.478;-2.610;2023-07-31T12:15:37;99617.20;;;17.12;100.00
55277;BME280;41136;51.478;-2.610;2023-07-31T12:18:00;99612.22;;;17.47;100.00
55277;BME280;41136;51.478;-2.610;2023-07-31T12:20:25;99557.06;;;18.00;100.00
55277;BME280;41136;51.478;-2.610;2023-07-31T12:22:51;99569.36;;;17.03;100.00
55277;BME280;41136;51.478;-2.610;2023-07-31T12:25:16;99593.37;;;16.57;100.00
55277;BME280;41136;51.478;-2.610;2023-07-31T12:27:44;99604.44;;;17.15;100.00
55277;BME280;41136;51.478;-2.610;2023-07-31T12:32:32;99636.53;;;17.29;100.00
55277;BME280;41136;51.478;-2.610;2023-07-31T12:34:59;99642.80;;;16.55;100.00
55277;BME280;41136;51.478;-2.610;2023-07-31T12:37:23;99642.17;;;16.83;100.00
55277;BME280;41136;51.478;-2.610;2023-07-31T12:39:48;99649.38;;;16.93;100.00
55277;BME280;41136;51.478;-2.610;2023-07-31T12:42:14;99648.35;;;16.88;100.00